Time;durP1;ratioP1;P1;durP2;ratioP2;P2;SDS_P1;SDS_P2;PMS_P1;PMS_P2;Temp;Humidity;BMP_temperature;BMP_pressure;BME280_temperature;BME280_humidity;BME280_pressure;Samples;Min_cycle;Max_cycle;Signal;HPM_P1;HPM_P2
2022/05/27 00:02:03;;;;;;;1.90;1.80;;;11.60;99.90;;;;;;5003829;28;20591;-77
2022/05/27 00:04:29;;;;;;;2.17;1.98;;;11.60;99.90;;;;;;5025869;28;20034;-77
2022/05/27 00:06:55;;;;;;;3.38;1.75;;;11.70;99.90;;;;;;5010058;28;20376;-77
2022/05/27 00:09:23;;;;;;;1.70;1.60;;;11.60;99.90;;;;;;5028337;28;20049;-78
2022/05/27 00:11:49;;;;;;;1.70;1.60;;;11.60;99.90;;;;;;5024192;28;20033;-78
2022/05/27 00:14:15;;;;;;;3.47;1.70;;;11.60;99.90;;;;;;5026133;28;20075;-78
2022/05/27 00:16:41;;;;;;;4.20;1.80;;;11.60;99.90;;;;;;5011787;28;20384;-78
2022/05/27 00:19:07;;;;;;;1.63;1.52;;;11.50;99.90;;;;;;5027940;28;20029;-78
2022/05/27 00:21:32;;;;;;;1.85;1.75;;;11.50;99.90;;;;;;5026104;28;20054;-78
2022/05/27 00:24:00;;;;;;;1.60;1.50;;;11.50;99.90;;;;;;5023757;28;20034;-78
2022/05/27 00:26:25;;;;;;;1.70;1.60;;;11.60;99.90;;;;;;5010227;28;20033;-78
2022/05/27 00:28:51;;;;;;;1.90;1.75;;;11.70;99.90;;;;;;5007128;28;20080;-78
2022/05/27 00:31:20;;;;;;;1.73;1.63;;;11.80;99.90;;;;;;5026853;28;20041;-78
2022/05/27 00:33:47;;;;;;;1.70;1.60;;;11.70;99.90;;;;;;5027010;28;20088;-78
2022/05/27 00:36:14;;;;;;;2.00;1.80;;;11.70;99.90;;;;;;5024608;28;20048;-78
2022/05/27 00:38:41;;;;;;;1.75;1.65;;;11.40;99.90;;;;;;5032184;28;20068;-78
2022/05/27 00:41:08;;;;;;;1.80;1.70;;;11.30;99.90;;;;;;5026349;28;20026;-78
2022/05/27 00:43:34;;;;;;;2.33;1.70;;;11.20;99.90;;;;;;5026576;28;20030;-78
2022/05/27 00:46:05;;;;;;;2.45;1.83;;;11.10;99.90;;;;;;5024622;28;20390;-78
2022/05/27 00:48:32;;;;;;;1.65;1.55;;;11.00;99.90;;;;;;5023306;28;20353;-78
2022/05/27 00:50:59;;;;;;;1.80;1.70;;;10.90;99.90;;;;;;5006861;28;20392;-77
2022/05/27 00:53:32;;;;;;;2.15;1.60;;;10.80;99.90;;;;;;5023413;28;20118;-77
2022/05/27 00:56:00;;;;;;;4.88;1.80;;;10.60;99.90;;;;;;5024866;28;20041;-77
2022/05/27 00:58:32;;;;;;;1.55;1.45;;;10.30;99.90;;;;;;5023683;28;20763;-77
2022/05/27 01:00:59;;;;;;;1.50;1.40;;;10.10;99.90;;;;;;5022486;28;20116;-78
2022/05/27 01:03:27;;;;;;;1.60;1.50;;;9.90;99.90;;;;;;5022513;28;20129;-78
2022/05/27 01:05:53;;;;;;;1.73;1.55;;;9.70;99.90;;;;;;5024596;28;20037;-78
2022/05/27 01:08:22;;;;;;;1.45;1.38;;;9.70;99.90;;;;;;5026422;28;20039;-79
2022/05/27 01:11:03;;;;;;;1.52;1.42;;;9.70;99.90;;;;;;5024165;28;20029;-79
2022/05/27 01:13:41;;;;;;;2.05;1.85;;;9.70;99.90;;;;;;5027577;28;20552;-78
2022/05/27 01:16:47;;;;;;;1.70;1.60;;;9.90;99.90;;;;;;5029154;28;20026;-78
2022/05/27 01:22:40;;;;;;;1.83;1.73;;;10.30;99.90;;;;;;5028272;28;20068;-78
2022/05/27 01:25:30;;;;;;;2.00;1.80;;;10.40;99.90;;;;;;5025440;28;20423;-78
2022/05/27 01:28:31;;;;;;;1.80;1.70;;;10.50;99.90;;;;;;5024846;28;20431;-78
2022/05/27 01:31:09;;;;;;;1.98;1.88;;;10.50;99.90;;;;;;5026397;28;20408;-79
2022/05/27 01:33:45;;;;;;;1.55;1.48;;;10.40;99.90;;;;;;5031897;28;20032;-77
2022/05/27 01:36:23;;;;;;;5.15;1.90;;;10.50;99.90;;;;;;5031765;28;20037;-78
2022/05/27 01:39:08;;;;;;;2.05;1.95;;;10.60;99.90;;;;;;5027533;28;20029;-79
2022/05/27 01:41:54;;;;;;;2.65;1.60;;;10.60;99.90;;;;;;5028530;28;20044;-79
2022/05/27 01:44:33;;;;;;;1.83;1.73;;;10.60;99.90;;;;;;5017433;28;20041;-79
2022/05/27 01:47:01;;;;;;;1.80;1.70;;;10.60;99.90;;;;;;5032275;28;20033;-79
2022/05/27 01:49:34;;;;;;;1.58;1.42;;;10.70;99.90;;;;;;5032032;28;20484;-78
2022/05/27 01:52:50;;;;;;;2.90;1.70;;;10.70;99.90;;;;;;5032123;28;20030;-78
2022/05/27 01:55:27;;;;;;;1.52;1.40;;;10.60;99.90;;;;;;4996929;28;20053;-79
2022/05/27 01:58:06;;;;;;;1.88;1.70;;;10.60;99.90;;;;;;5032188;28;20111;-78
2022/05/27 02:00:34;;;;;;;1.90;1.60;;;10.60;99.90;;;;;;5027629;28;20030;-79
2022/05/27 02:03:12;;;;;;;1.65;1.55;;;10.60;99.90;;;;;;5029048;28;20377;-78
2022/05/27 02:05:51;;;;;;;2.03;1.60;;;10.50;99.90;;;;;;5033320;28;20409;-79
2022/05/27 02:08:24;;;;;;;1.60;1.50;;;10.50;99.90;;;;;;5028703;28;20120;-79
2022/05/27 02:10:57;;;;;;;2.67;1.58;;;10.70;99.90;;;;;;5030488;28;20190;-79
2022/05/27 02:13:34;;;;;;;2.35;1.77;;;10.60;99.90;;;;;;5031974;28;20040;-78
2022/05/27 02:16:01;;;;;;;1.97;1.87;;;10.60;99.90;;;;;;5032276;28;20071;-78
2022/05/27 02:18:49;;;;;;;1.70;1.60;;;10.60;99.90;;;;;;5032700;28;20307;-78
2022/05/27 02:21:29;;;;;;;2.00;1.90;;;10.70;99.90;;;;;;5028724;28;20033;-78
2022/05/27 02:24:03;;;;;;;3.28;1.83;;;10.60;99.90;;;;;;5029955;28;20033;-78
2022/05/27 02:26:33;;;;;;;1.65;1.55;;;10.70;99.90;;;;;;5027927;28;20040;-78
2022/05/27 02:29:06;;;;;;;2.33;1.70;;;10.70;99.90;;;;;;5026990;28;20068;-78
2022/05/27 02:31:35;;;;;;;2.15;2.03;;;10.70;99.90;;;;;;5027657;28;20484;-78
2022/05/27 02:37:13;;;;;;;2.00;1.90;;;10.70;99.90;;;;;;5030032;28;20044;-78
2022/05/27 02:39:39;;;;;;;2.05;1.85;;;10.80;99.90;;;;;;5030428;28;20063;-78
2022/05/27 02:42:31;;;;;;;1.75;1.65;;;10.80;99.90;;;;;;5033519;28;20111;-78
2022/05/27 02:45:31;;;;;;;1.60;1.50;;;10.80;99.90;;;;;;5028532;28;20108;-79
2022/05/27 02:48:13;;;;;;;1.77;1.67;;;10.80;99.90;;;;;;5031030;28;20045;-79
2022/05/27 02:51:00;;;;;;;4.82;1.88;;;10.80;99.90;;;;;;5029863;28;20753;-79
2022/05/27 02:53:43;;;;;;;2.20;1.65;;;10.80;99.90;;;;;;5029857;28;20043;-79
2022/05/27 02:56:31;;;;;;;1.98;1.70;;;10.90;99.90;;;;;;5029550;28;20069;-78
2022/05/27 02:58:57;;;;;;;1.88;1.77;;;11.00;99.90;;;;;;5031355;28;20037;-79
2022/05/27 03:01:23;;;;;;;4.35;2.10;;;11.10;99.90;;;;;;5013444;28;20038;-78
2022/05/27 03:03:48;;;;;;;2.00;1.90;;;11.10;99.90;;;;;;5028336;28;20037;-79
2022/05/27 03:06:26;;;;;;;3.72;1.85;;;11.10;99.90;;;;;;5026459;28;20034;-78
2022/05/27 03:09:10;;;;;;;1.90;1.80;;;11.10;99.90;;;;;;5025101;28;20071;-78
2022/05/27 03:11:54;;;;;;;3.08;2.10;;;11.00;99.90;;;;;;5029180;28;20030;-78
2022/05/27 03:14:58;;;;;;;3.42;2.10;;;11.00;99.90;;;;;;5029920;28;20384;-78
2022/05/27 03:18:09;;;;;;;2.08;1.88;;;11.10;99.90;;;;;;4962092;28;20608;-78
2022/05/27 03:20:46;;;;;;;2.38;2.08;;;11.10;99.90;;;;;;4938773;28;20122;-79
2022/05/27 03:23:46;;;;;;;2.95;2.10;;;11.20;99.90;;;;;;5020418;28;20050;-79
2022/05/27 03:26:43;;;;;;;2.42;2.13;;;11.20;99.90;;;;;;5028329;28;20503;-77
2022/05/27 03:29:21;;;;;;;2.80;2.43;;;11.30;99.90;;;;;;5013550;28;20123;-78
2022/05/27 03:31:55;;;;;;;3.33;2.55;;;11.40;99.90;;;;;;5026482;28;20496;-77
2022/05/27 03:34:46;;;;;;;2.47;2.28;;;11.40;99.90;;;;;;5028483;28;20021;-78
2022/05/27 03:37:33;;;;;;;2.08;1.90;;;11.50;99.90;;;;;;5029123;28;20048;-78
2022/05/27 03:40:09;;;;;;;1.88;1.77;;;11.60;99.90;;;;;;5027352;28;20029;-79
2022/05/27 03:42:37;;;;;;;3.10;2.10;;;11.60;99.90;;;;;;5006009;28;20111;-78
2022/05/27 03:45:10;;;;;;;2.38;1.80;;;11.70;99.90;;;;;;5027045;28;20044;-78
2022/05/27 03:47:38;;;;;;;2.08;1.90;;;11.70;99.90;;;;;;5027093;28;20112;-79
2022/05/27 03:50:06;;;;;;;3.35;1.98;;;11.70;99.90;;;;;;5027422;28;20120;-79
2022/05/27 03:52:42;;;;;;;1.95;1.73;;;11.70;99.90;;;;;;5025082;28;20037;-79
2022/05/27 03:55:12;;;;;;;2.30;2.10;;;11.70;99.90;;;;;;5026565;28;20045;-79
2022/05/27 03:57:37;;;;;;;2.42;2.15;;;11.70;99.90;;;;;;5027879;28;20033;-80
2022/05/27 04:00:05;;;;;;;2.00;1.90;;;11.70;99.90;;;;;;5029760;28;20034;-79
2022/05/27 04:02:30;;;;;;;2.20;2.00;;;11.70;99.90;;;;;;5030592;28;20527;-79
2022/05/27 04:04:56;;;;;;;3.35;1.83;;;11.70;99.90;;;;;;5031028;28;20504;-79
2022/05/27 04:07:22;;;;;;;3.25;2.03;;;11.80;99.90;;;;;;5030248;28;21711;-79
2022/05/27 04:09:48;;;;;;;2.40;2.20;;;11.80;99.90;;;;;;5027783;28;20113;-78
2022/05/27 04:12:13;;;;;;;2.97;2.03;;;11.80;99.90;;;;;;5027666;28;20392;-79
2022/05/27 04:14:41;;;;;;;2.33;1.90;;;11.90;99.90;;;;;;5028435;28;20041;-78
2022/05/27 04:19:51;;;;;;;3.10;2.22;;;11.90;99.90;;;;;;5029962;28;20905;-79
2022/05/27 04:22:16;;;;;;;3.80;2.40;;;11.90;99.90;;;;;;5030035;28;20025;-78
2022/05/27 04:24:42;;;;;;;2.22;2.00;;;12.00;99.90;;;;;;5030319;28;20374;-79
2022/05/27 04:27:19;;;;;;;2.35;2.05;;;12.00;99.90;;;;;;5029440;28;20459;-78
2022/05/27 04:29:48;;;;;;;1.67;1.58;;;12.10;99.90;;;;;;5031672;28;20025;-78
2022/05/27 04:32:14;;;;;;;2.00;1.90;;;12.10;99.90;;;;;;5028793;28;20126;-79
2022/05/27 04:34:40;;;;;;;3.20;2.00;;;12.20;99.90;;;;;;5027683;28;20069;-79
2022/05/27 04:37:07;;;;;;;3.00;2.10;;;12.30;99.90;;;;;;5029055;28;20029;-78
2022/05/27 04:39:32;;;;;;;2.00;1.90;;;12.30;99.90;;;;;;5031664;28;20091;-79
2022/05/27 04:41:58;;;;;;;2.80;2.15;;;12.40;99.90;;;;;;5032283;28;20041;-79
2022/05/27 04:44:24;;;;;;;4.63;2.35;;;12.40;99.90;;;;;;5030686;28;20021;-79
2022/05/27 04:46:50;;;;;;;3.17;1.90;;;12.50;99.90;;;;;;5029413;28;20033;-79
2022/05/27 04:52:00;;;;;;;2.28;1.80;;;12.60;99.90;;;;;;5030121;28;20112;-79
2022/05/27 04:54:26;;;;;;;2.40;2.20;;;12.70;99.90;;;;;;5027872;28;20500;-79
2022/05/27 04:56:54;;;;;;;2.00;1.88;;;12.90;99.90;;;;;;5027071;28;20090;-79
2022/05/27 04:59:20;;;;;;;2.72;1.90;;;13.00;99.90;;;;;;5034654;28;20025;-79
2022/05/27 05:01:45;;;;;;;2.42;1.95;;;13.10;99.90;;;;;;5029074;28;20072;-80
2022/05/27 05:04:11;;;;;;;2.58;2.30;;;13.20;99.90;;;;;;5031266;28;20034;-79
2022/05/27 05:06:37;;;;;;;2.70;2.50;;;13.30;99.90;;;;;;5030714;28;20105;-80
2022/05/27 05:09:04;;;;;;;2.28;2.08;;;13.30;99.90;;;;;;5035165;28;20049;-80
2022/05/27 05:11:29;;;;;;;2.50;2.30;;;13.30;99.90;;;;;;5033968;28;20034;-80
2022/05/27 05:13:55;;;;;;;5.80;3.08;;;13.40;99.90;;;;;;5037616;28;20045;-78
2022/05/27 05:16:21;;;;;;;2.33;2.13;;;13.60;99.90;;;;;;5033559;28;20027;-79
2022/05/27 05:18:46;;;;;;;2.38;2.17;;;13.70;99.90;;;;;;5034743;28;20033;-79
2022/05/27 05:21:13;;;;;;;2.60;2.13;;;13.70;99.90;;;;;;5033505;28;20112;-79
2022/05/27 05:23:39;;;;;;;2.50;2.30;;;13.80;99.90;;;;;;5029263;28;20033;-79
2022/05/27 05:26:04;;;;;;;2.28;2.00;;;13.90;99.90;;;;;;5034882;28;20033;-80
2022/05/27 05:28:30;;;;;;;2.50;2.30;;;14.10;99.90;;;;;;5028764;28;20088;-80
2022/05/27 05:30:56;;;;;;;3.33;2.17;;;14.30;99.90;;;;;;5007201;28;20049;-80
2022/05/27 05:33:21;;;;;;;1.98;1.88;;;14.50;99.90;;;;;;5016434;28;20071;-80
2022/05/27 05:35:47;;;;;;;4.72;1.77;;;14.60;99.90;;;;;;5033394;28;20033;-80
2022/05/27 05:38:13;;;;;;;3.72;1.67;;;14.70;99.90;;;;;;5029705;28;20116;-79
2022/05/27 05:40:39;;;;;;;2.58;1.92;;;14.70;99.90;;;;;;5031168;28;20407;-79
2022/05/27 05:43:06;;;;;;;3.15;2.10;;;14.70;99.90;;;;;;5032070;28;20075;-80
2022/05/27 05:45:32;;;;;;;2.30;2.10;;;14.70;99.90;;;;;;5033658;28;20157;-80
2022/05/27 05:47:58;;;;;;;4.53;2.03;;;14.90;99.90;;;;;;5032490;28;20040;-79
2022/05/27 05:50:24;;;;;;;2.22;2.13;;;15.10;99.90;;;;;;5042916;28;20029;-79
2022/05/27 05:52:51;;;;;;;2.00;1.90;;;15.20;99.90;;;;;;5033610;28;20034;-79
2022/05/27 05:55:18;;;;;;;2.95;1.73;;;15.40;99.90;;;;;;5039245;28;20051;-79
2022/05/27 05:57:56;;;;;;;2.15;1.88;;;15.20;99.90;;;;;;5032695;28;20040;-80
2022/05/27 06:00:25;;;;;;;2.35;1.60;;;15.50;99.90;;;;;;5037510;28;20041;-80
2022/05/27 06:02:51;;;;;;;2.28;2.08;;;15.60;99.90;;;;;;5031604;28;22178;-79
2022/05/27 06:05:17;;;;;;;5.22;2.03;;;15.70;99.90;;;;;;5035905;28;20516;-80
2022/05/27 06:07:43;;;;;;;1.95;1.85;;;15.80;99.90;;;;;;5031190;28;20133;-81
2022/05/27 06:10:14;;;;;;;3.53;1.92;;;15.80;99.90;;;;;;5030168;28;20053;-80
2022/05/27 06:12:40;;;;;;;2.15;1.95;;;16.10;99.90;;;;;;5015430;28;20065;-80
2022/05/27 06:15:10;;;;;;;3.80;2.15;;;16.20;99.90;;;;;;5016838;28;20026;-80
2022/05/27 06:17:36;;;;;;;2.00;1.80;;;16.40;99.90;;;;;;5019431;28;20037;-80
2022/05/27 06:20:04;;;;;;;6.68;2.15;;;16.40;99.90;;;;;;5015130;28;20025;-80
2022/05/27 06:22:31;;;;;;;1.88;1.60;;;16.40;99.90;;;;;;5014720;28;20129;-80
2022/05/27 06:25:01;;;;;;;1.70;1.60;;;16.50;99.90;;;;;;5014645;28;20041;-80
2022/05/27 06:27:27;;;;;;;1.63;1.48;;;16.50;99.90;;;;;;5012775;28;20033;-79
2022/05/27 06:35:22;;;;;;;1.40;1.25;;;16.70;99.90;;;;;;5014420;28;20032;-79
2022/05/27 06:37:48;;;;;;;1.65;1.52;;;16.70;99.90;;;;;;5012874;28;20397;-79
2022/05/27 06:40:14;;;;;;;2.58;1.70;;;16.60;99.90;;;;;;5013803;28;20081;-80
2022/05/27 06:42:40;;;;;;;1.50;1.40;;;16.70;99.90;;;;;;5012422;28;20446;-80
2022/05/27 06:45:19;;;;;;;2.85;1.60;;;16.70;99.90;;;;;;5028945;28;20034;-79
2022/05/27 06:47:52;;;;;;;2.95;1.73;;;16.80;99.90;;;;;;5014118;28;20401;-80
2022/05/27 06:50:18;;;;;;;1.73;1.63;;;17.10;99.90;;;;;;5014200;28;20029;-80
2022/05/27 06:52:44;;;;;;;3.92;1.65;;;17.20;99.90;;;;;;5012047;28;20532;-81
2022/05/27 06:55:15;;;;;;;1.63;1.52;;;17.30;99.90;;;;;;5015470;28;20086;-80
2022/05/27 06:57:41;;;;;;;2.28;1.45;;;17.40;99.90;;;;;;5016167;28;20092;-81
2022/05/27 07:00:09;;;;;;;1.50;1.40;;;17.50;99.90;;;;;;5014911;28;20050;-81
2022/05/27 07:02:38;;;;;;;2.08;1.38;;;17.60;99.90;;;;;;5007214;28;20045;-80
2022/05/27 07:05:05;;;;;;;1.45;1.35;;;17.80;99.90;;;;;;5010761;28;20120;-81
2022/05/27 07:07:31;;;;;;;1.42;1.33;;;17.80;98.50;;;;;;5010108;28;20588;-80
2022/05/27 07:09:59;;;;;;;1.65;1.55;;;17.80;98.90;;;;;;5025217;28;20056;-81
2022/05/27 07:12:26;;;;;;;4.55;1.38;;;17.70;99.10;;;;;;5032246;28;20731;-80
2022/05/27 07:14:51;;;;;;;1.20;0.98;;;17.90;99.90;;;;;;5014454;28;20029;-80
2022/05/27 07:17:17;;;;;;;1.90;1.50;;;17.80;99.10;;;;;;5030917;28;20051;-80
2022/05/27 07:19:43;;;;;;;1.50;1.30;;;17.80;99.90;;;;;;5032572;28;20079;-80
2022/05/27 07:22:10;;;;;;;1.83;1.20;;;17.90;98.60;;;;;;5031323;28;20120;-80
2022/05/27 07:24:37;;;;;;;1.40;1.30;;;18.00;99.90;;;;;;5029688;28;21688;-80
2022/05/27 07:27:04;;;;;;;1.38;1.27;;;18.10;99.40;;;;;;5033189;28;20443;-81
2022/05/27 07:29:30;;;;;;;2.40;1.50;;;17.80;98.00;;;;;;5028587;28;20041;-80
2022/05/27 07:31:55;;;;;;;1.40;1.30;;;17.90;99.80;;;;;;5033377;28;20048;-81
2022/05/27 07:34:21;;;;;;;3.38;1.40;;;17.60;96.60;;;;;;5028887;28;20041;-80
2022/05/27 07:36:47;;;;;;;1.90;1.80;;;17.60;99.00;;;;;;5029859;28;20025;-80
2022/05/27 07:39:13;;;;;;;1.75;1.00;;;17.80;99.20;;;;;;5031806;28;20509;-80
2022/05/27 07:41:39;;;;;;;1.23;1.17;;;17.70;95.80;;;;;;5033074;28;20033;-81
2022/05/27 07:44:05;;;;;;;1.38;1.25;;;17.70;96.80;;;;;;5013023;28;20037;-81
2022/05/27 07:46:34;;;;;;;2.00;1.23;;;17.80;99.70;;;;;;5032316;28;20025;-80
2022/05/27 07:49:00;;;;;;;1.55;1.40;;;18.20;98.70;;;;;;5029560;28;20021;-81
2022/05/27 07:51:29;;;;;;;1.70;1.13;;;18.40;96.80;;;;;;5029707;28;20062;-80
2022/05/27 07:53:54;;;;;;;1.63;1.00;;;18.10;94.90;;;;;;5030423;28;20037;-80
2022/05/27 07:56:20;;;;;;;2.47;1.45;;;17.90;95.40;;;;;;5031097;28;20033;-80
2022/05/27 07:58:46;;;;;;;2.83;1.20;;;17.80;94.80;;;;;;5027998;28;20037;-81
2022/05/27 08:01:15;;;;;;;2.55;1.38;;;17.60;96.70;;;;;;5029626;28;20056;-80
2022/05/27 08:03:42;;;;;;;1.38;1.33;;;17.70;98.30;;;;;;5034943;28;20033;-81
2022/05/27 08:06:09;;;;;;;1.00;1.00;;;17.80;96.30;;;;;;5027528;28;20124;-80
2022/05/27 08:08:36;;;;;;;1.80;1.50;;;18.10;97.20;;;;;;5031220;28;20025;-80
2022/05/27 08:11:06;;;;;;;1.67;1.20;;;17.90;95.70;;;;;;5030044;28;20022;-80
2022/05/27 08:13:36;;;;;;;1.55;1.00;;;18.00;97.40;;;;;;5009474;28;20038;-80
2022/05/27 08:16:02;;;;;;;1.83;1.33;;;18.30;97.60;;;;;;5023981;28;20044;-81
2022/05/27 08:18:28;;;;;;;1.52;1.30;;;18.50;96.50;;;;;;4997604;28;20245;-81
2022/05/27 08:20:54;;;;;;;1.10;1.00;;;18.80;96.90;;;;;;5030447;28;20799;-81
2022/05/27 08:23:20;;;;;;;1.40;1.30;;;18.90;94.30;;;;;;5030531;28;20021;-82
2022/05/27 08:25:45;;;;;;;2.42;1.30;;;18.90;95.60;;;;;;5031273;28;20175;-81
2022/05/27 08:28:11;;;;;;;2.25;1.67;;;18.80;92.70;;;;;;5026905;28;20030;-82
2022/05/27 08:30:39;;;;;;;1.65;1.30;;;18.30;95.30;;;;;;5010580;28;20045;-82
2022/05/27 08:33:05;;;;;;;;;;;18.10;94.80;;;;;;5028844;28;20492;-81
2022/05/27 08:38:22;;;;;;;1.35;1.23;;;17.80;95.40;;;;;;5028630;28;20052;-82
2022/05/27 08:41:07;;;;;;;1.63;1.27;;;17.80;99.10;;;;;;5025536;28;20048;-82
2022/05/27 08:43:41;;;;;;;3.65;1.55;;;18.10;95.90;;;;;;5031664;28;20056;-82
2022/05/27 08:46:17;;;;;;;2.67;1.40;;;18.30;99.10;;;;;;5032809;28;20116;-82
2022/05/27 08:48:46;;;;;;;1.15;1.10;;;18.40;96.70;;;;;;5032785;28;20060;-82
2022/05/27 08:51:28;;;;;;;1.45;1.35;;;18.10;94.30;;;;;;5033077;28;20057;-82
2022/05/27 08:54:09;;;;;;;3.53;1.60;;;17.90;96.30;;;;;;5029641;28;20479;-81
2022/05/27 08:59:45;;;;;;;3.58;1.45;;;18.40;98.40;;;;;;5037571;28;20035;-82
2022/05/27 09:02:45;;;;;;;3.33;1.60;;;19.00;96.50;;;;;;5033200;28;20120;-81
2022/05/27 09:05:22;;;;;;;4.35;1.60;;;19.10;94.30;;;;;;5016703;28;20382;-81
2022/05/27 09:07:57;;;;;;;1.67;1.27;;;19.10;93.30;;;;;;5033167;28;20184;-81
2022/05/27 09:11:02;;;;;;;1.17;1.08;;;18.90;92.40;;;;;;5034763;28;20053;-82
2022/05/27 09:13:52;;;;;;;2.58;1.35;;;18.50;91.50;;;;;;5038995;28;20127;-81
2022/05/27 09:16:37;;;;;;;2.60;1.60;;;18.80;93.20;;;;;;5036377;28;20041;-81
2022/05/27 09:19:25;;;;;;;1.70;1.58;;;18.90;93.60;;;;;;5018758;28;20373;-81
2022/05/27 09:22:06;;;;;;;6.63;1.45;;;19.30;95.70;;;;;;5037458;28;20029;-81
2022/05/27 09:24:41;;;;;;;2.15;1.30;;;19.90;94.20;;;;;;5034264;28;20033;-82
2022/05/27 09:27:24;;;;;;;1.85;1.60;;;19.80;91.10;;;;;;5019941;28;20033;-80
2022/05/27 09:30:06;;;;;;;1.40;1.00;;;19.70;90.10;;;;;;5034536;28;20033;-81
2022/05/27 09:33:10;;;;;;;1.35;1.20;;;19.80;86.40;;;;;;5033049;28;20041;-81
2022/05/27 09:35:41;;;;;;;1.02;1.02;;;19.80;92.60;;;;;;4993810;28;20038;-80
2022/05/27 09:38:08;;;;;;;2.42;1.40;;;20.10;90.10;;;;;;5022757;28;20037;-80
2022/05/27 09:40:40;;;;;;;1.08;1.02;;;19.50;84.20;;;;;;5034540;28;20506;-81
2022/05/27 09:43:15;;;;;;;6.97;1.63;;;19.60;91.00;;;;;;5030125;28;20037;-81
2022/05/27 09:45:40;;;;;;;1.10;1.10;;;19.90;91.50;;;;;;5030774;28;20026;-82
2022/05/27 09:48:08;;;;;;;2.03;1.00;;;19.80;84.80;;;;;;5030672;28;20037;-82
2022/05/27 09:51:00;;;;;;;1.73;0.90;;;20.00;84.70;;;;;;5031977;28;20045;-82
2022/05/27 09:53:36;;;;;;;2.03;1.20;;;20.10;84.60;;;;;;5015107;28;20045;-82
2022/05/27 09:56:05;;;;;;;3.33;1.42;;;20.10;91.10;;;;;;5031257;28;20047;-81
2022/05/27 09:58:40;;;;;;;1.08;1.05;;;20.10;92.00;;;;;;5035219;28;20072;-82
2022/05/27 10:01:25;;;;;;;1.52;1.13;;;20.00;92.10;;;;;;5028523;28;20045;-81
2022/05/27 10:04:21;;;;;;;3.38;1.42;;;19.80;89.80;;;;;;5032260;28;20499;-81
2022/05/27 10:06:51;;;;;;;1.60;1.50;;;19.90;90.80;;;;;;5029704;28;20041;-82
2022/05/27 10:09:30;;;;;;;2.33;1.25;;;20.00;91.20;;;;;;5010285;28;20455;-81
2022/05/27 10:12:00;;;;;;;2.05;1.83;;;19.80;93.30;;;;;;5030125;28;20038;-80
2022/05/27 10:14:39;;;;;;;2.25;1.77;;;19.70;91.20;;;;;;5008367;28;20463;-81
2022/05/27 10:17:28;;;;;;;4.40;1.77;;;20.10;95.10;;;;;;5014292;28;20151;-80
2022/05/27 10:20:22;;;;;;;2.63;1.30;;;20.20;90.10;;;;;;5016507;28;20087;-81
2022/05/27 10:23:04;;;;;;;3.22;1.92;;;20.10;89.60;;;;;;5009420;28;20040;-81
2022/05/27 10:25:42;;;;;;;6.40;1.63;;;19.80;92.00;;;;;;5010365;28;20045;-81
2022/05/27 10:28:08;;;;;;;;;;;19.70;93.70;;;;;;5011341;28;20038;-83
2022/05/27 10:30:50;;;;;;;1.55;1.42;;;19.80;91.10;;;;;;5010691;28;21607;-81
2022/05/27 10:33:36;;;;;;;2.60;1.73;;;20.00;91.70;;;;;;5010313;28;20037;-81
2022/05/27 10:36:02;;;;;;;1.92;1.38;;;19.90;90.80;;;;;;5008256;28;20030;-80
2022/05/27 10:38:42;;;;;;;2.50;1.25;;;20.10;93.80;;;;;;5009550;28;20037;-81
2022/05/27 10:41:16;;;;;;;2.97;1.40;;;20.00;92.10;;;;;;5024505;28;20077;-80
2022/05/27 10:43:44;;;;;;;4.93;1.75;;;19.50;92.30;;;;;;5010469;28;20042;-80
2022/05/27 10:46:19;;;;;;;1.88;1.58;;;19.50;91.30;;;;;;5012315;28;20028;-80
2022/05/27 10:49:08;;;;;;;2.55;1.70;;;19.30;91.20;;;;;;5010957;28;20041;-79
2022/05/27 10:51:58;;;;;;;2.20;1.67;;;19.00;92.70;;;;;;5010651;28;21112;-80
2022/05/27 10:54:39;;;;;;;1.50;1.40;;;19.10;92.70;;;;;;5008543;28;20044;-80
2022/05/27 11:04:04;;;;;;;2.90;1.33;;;19.10;91.70;;;;;;5009014;28;20056;-79
2022/05/27 11:06:49;;;;;;;1.40;1.30;;;19.10;92.70;;;;;;5009032;28;20044;-79
2022/05/27 11:09:36;;;;;;;1.10;1.00;;;19.10;91.80;;;;;;5018465;28;20057;-79
2022/05/27 11:12:21;;;;;;;1.35;1.15;;;19.30;88.20;;;;;;5027531;28;20434;-79
2022/05/27 11:15:11;;;;;;;1.95;1.05;;;19.20;90.60;;;;;;5031555;28;20049;-79
2022/05/27 11:18:11;;;;;;;1.25;1.10;;;19.20;90.60;;;;;;5032675;28;20396;-79
2022/05/27 11:20:49;;;;;;;1.63;1.48;;;19.30;93.10;;;;;;5036134;28;20556;-80
2022/05/27 11:23:35;;;;;;;0.95;0.60;;;19.40;92.20;;;;;;5035045;28;20160;-80
2022/05/27 11:26:27;;;;;;;0.90;0.90;;;19.20;88.60;;;;;;5035088;28;20044;-80
2022/05/27 11:29:25;;;;;;;1.08;0.98;;;19.20;93.30;;;;;;5031607;28;20491;-79
2022/05/27 11:32:01;;;;;;;;;;;19.30;91.10;;;;;;5014835;28;20112;-79
2022/05/27 11:34:30;;;;;;;1.58;1.48;;;19.10;91.20;;;;;;5016490;28;19952;-79
2022/05/27 11:37:14;;;;;;;2.00;1.20;;;19.10;90.30;;;;;;5030058;28;20121;-78
2022/05/27 11:40:08;;;;;;;1.05;1.05;;;19.00;91.50;;;;;;5032124;28;20041;-80
2022/05/27 11:43:07;;;;;;;1.30;1.13;;;19.30;89.70;;;;;;5033387;28;20473;-79
2022/05/27 11:45:41;;;;;;;2.10;1.15;;;19.30;89.70;;;;;;5032005;28;20040;-80
2022/05/27 11:48:13;;;;;;;1.80;1.20;;;19.40;83.20;;;;;;5029485;28;20036;-79
2022/05/27 11:50:39;;;;;;;1.38;1.08;;;19.40;90.00;;;;;;5034971;28;20025;-79
2022/05/27 11:53:17;;;;;;;0.98;0.98;;;19.50;84.30;;;;;;5031060;28;20052;-79
2022/05/27 11:55:55;;;;;;;;;;;19.60;85.70;;;;;;5032574;28;20056;-79
2022/05/27 11:58:31;;;;;;;2.38;1.08;;;19.90;92.00;;;;;;5035773;28;19920;-80
2022/05/27 12:01:09;;;;;;;0.90;0.90;;;20.20;85.90;;;;;;5035282;28;20048;-80
2022/05/27 12:03:51;;;;;;;2.17;1.20;;;19.90;77.30;;;;;;5030704;28;20703;-79
2022/05/27 12:06:25;;;;;;;1.20;1.13;;;19.70;80.50;;;;;;5018479;28;20025;-81
2022/05/27 12:09:41;;;;;;;1.08;0.98;;;19.70;77.80;;;;;;5033294;28;20067;-80
2022/05/27 12:12:24;;;;;;;1.48;1.00;;;19.60;77.70;;;;;;5024043;28;20059;-80
2022/05/27 12:14:59;;;;;;;3.53;1.00;;;19.60;83.10;;;;;;5033712;28;20099;-80
2022/05/27 12:17:36;;;;;;;2.35;1.15;;;19.70;85.90;;;;;;5013860;28;20036;-79
2022/05/27 12:20:03;;;;;;;1.15;1.00;;;19.70;81.00;;;;;;5030178;28;20034;-79
2022/05/27 12:22:35;;;;;;;1.30;1.20;;;19.80;89.00;;;;;;5027137;28;20078;-79
2022/05/27 12:25:34;;;;;;;2.03;1.20;;;20.10;88.90;;;;;;5015868;28;20132;-78
2022/05/27 12:28:02;;;;;;;9.82;1.50;;;20.10;78.60;;;;;;5029999;28;20044;-79
2022/05/27 12:31:06;;;;;;;3.03;1.10;;;19.90;78.00;;;;;;5030352;28;20472;-78
2022/05/27 12:33:36;;;;;;;1.42;1.25;;;20.00;90.50;;;;;;5008806;28;20038;-79
2022/05/27 12:36:12;;;;;;;1.40;1.30;;;20.20;79.30;;;;;;5031408;28;20038;-79
2022/05/27 12:38:44;;;;;;;2.08;1.30;;;20.10;73.50;;;;;;5036359;28;20060;-79
2022/05/27 12:41:12;;;;;;;1.60;1.20;;;20.00;75.10;;;;;;5032053;28;20025;-79
2022/05/27 12:44:04;;;;;;;;;;;20.10;91.10;;;;;;5030981;28;20100;-79
2022/05/27 12:46:32;;;;;;;2.38;1.25;;;20.20;84.10;;;;;;5038055;28;19963;-79
2022/05/27 12:49:37;;;;;;;3.10;1.40;;;20.10;77.20;;;;;;5020003;28;20037;-79
2022/05/27 12:52:28;;;;;;;3.28;1.20;;;20.20;87.50;;;;;;5024156;28;20051;-79
2022/05/27 12:54:54;;;;;;;1.55;1.23;;;20.20;87.00;;;;;;5024351;28;20065;-79
2022/05/27 13:01:20;;;;;;;1.83;1.20;;;20.00;75.70;;;;;;4971143;28;20077;-78
2022/05/27 13:03:48;;;;;;;1.45;1.35;;;20.00;75.60;;;;;;5011909;28;20040;-80
2022/05/27 13:06:33;;;;;;;1.05;1.00;;;20.00;75.40;;;;;;5030022;28;20056;-79
2022/05/27 13:09:34;;;;;;;1.42;1.13;;;20.10;78.80;;;;;;4995615;28;20077;-79
2022/05/27 13:12:00;;;;;;;1.70;1.40;;;20.10;74.50;;;;;;5031022;28;20037;-79
2022/05/27 13:14:55;;;;;;;2.28;1.33;;;20.10;77.20;;;;;;5030773;28;20049;-79
2022/05/27 13:17:36;;;;;;;1.38;1.27;;;20.00;74.30;;;;;;5003013;28;20105;-79
2022/05/27 13:20:55;;;;;;;1.40;1.30;;;20.10;81.60;;;;;;5026330;28;20057;-79
2022/05/27 13:23:31;;;;;;;1.50;1.30;;;20.40;78.60;;;;;;4992736;28;20044;-78
2022/05/27 13:26:59;;;;;;;1.92;1.30;;;20.10;75.10;;;;;;5032388;28;20055;-78
2022/05/27 13:29:49;;;;;;;1.45;1.15;;;20.10;78.90;;;;;;5038553;28;20030;-78
2022/05/27 13:32:21;;;;;;;1.00;1.00;;;20.10;71.20;;;;;;5030245;28;20080;-79
2022/05/27 13:35:00;;;;;;;1.65;1.30;;;19.90;67.30;;;;;;5030555;28;20037;-79
2022/05/27 13:37:55;;;;;;;1.25;1.17;;;19.80;71.50;;;;;;5031184;28;20029;-79
2022/05/27 13:40:29;;;;;;;1.08;0.82;;;19.80;71.60;;;;;;5015946;28;20095;-79
2022/05/27 13:43:01;;;;;;;1.88;1.38;;;19.80;70.90;;;;;;5020852;28;20033;-79
2022/05/27 13:45:42;;;;;;;1.73;1.27;;;19.80;76.00;;;;;;5031262;28;20452;-79
2022/05/27 13:48:47;;;;;;;3.97;1.40;;;19.90;76.40;;;;;;5033639;28;20041;-78
2022/05/27 13:51:16;;;;;;;1.60;1.33;;;19.90;74.30;;;;;;5030477;28;20116;-79
2022/05/27 13:53:43;;;;;;;1.88;1.33;;;19.80;72.30;;;;;;5026609;28;20038;-79
2022/05/27 13:56:34;;;;;;;1.30;1.20;;;19.80;76.00;;;;;;5032278;28;20539;-78
2022/05/27 13:59:34;;;;;;;1.60;1.30;;;19.90;81.80;;;;;;5037737;28;20022;-78
2022/05/27 14:02:02;;;;;;;1.83;1.48;;;20.20;69.40;;;;;;5028128;28;20049;-78